首页
METAR-TAF:

METAR-TAF

机场 :

Val-d'Or, 魁北克, 加拿大

纬度: 48-04N, 经度: 077-47W, 海拔: 337米

当前天气观测

该预报发布于30分钟前的15:00 UTC
风速12节,风向南转西南,有时为18节阵风
温度 -12°C
湿度 85%
气压 1020 hPa
能見度: 24.1公里
散云层高于1600英尺
阴天层高于7500英尺

METAR: CYVO 211500Z 20012G18KT 15SM SCT016 OVC075 M12/M14 A3011 RMK SC4AC4 SLP233

时间: 10:30 (15:30 UTC)

预报

该预报发布于3小时和52分钟前的11:38 UTC
预报有效从21日的 12点(UTC)到 21日的 24点(UTC)
风速8节,风向南转西南
能見度: 10公里
少量云层高于3000英尺
阴天层高于10000英尺
从 21日的 1400点(UTC)
风速10节,风向南转西南
能見度: 10公里
多云层高于2500英尺
阴天层高于6000英尺
短暂存在
从 21日的 14点(UTC)到 21日的 24点(UTC)
能見度: 3.2公里
阴天层高于1000英尺
小雪

TAF: CYVO 211138Z 2112/2124 20008KT P6SM FEW030 OVC100 FM211400 21010KT P6SM BKN025 OVC060 TEMPO 2114/2124 2SM -SN OVC010 RMK NXT FCST BY 211800Z

超过4000个机场的气象观测和天气预报(METAR&TAF报告)。

可查询的气象台以黄色和红色小点在地图上表示。

将鼠标移到小点上方,可查看气象台名称。

然后点击查看天气观测和预报。

如需切换地图:点击带黑十字的绿色按钮放大地图;点击带横线的绿色按钮缩小地图;或者点击绿色箭头查看邻近地区的地图。


METAR-TAF: